This is the latest recevied weather packets stored in our database for station/object DB0ADS-6. If no packets are shown the sender has not sent any weather packets the latest 1 day(s).
| Time | Temp. | Humidity | Pressure | Rain* | Wind** | Luminosity | Snow |
|---|---|---|---|---|---|---|---|
| 1777947961 | 13.89° C | 77% | 1008.4 hPa | 0 mm | 0.89 m/s, 351° | - | - |
| 1777947659 | 13.89° C | 77% | 1008.4 hPa | 0 mm | 0.89 m/s, 346° | - | - |
| 1777947357 | 13.89° C | 77% | 1008.3 hPa | 0 mm | 0.89 m/s, 353° | - | - |
| 1777947055 | 13.89° C | 75% | 1008.3 hPa | 0 mm | 1.34 m/s, 343° | - | - |
| 1777946754 | 13.89° C | 77% | 1008.4 hPa | 0 mm | 1.34 m/s, 23° | - | - |
| 1777946452 | 13.89° C | 76% | 1008.4 hPa | 0 mm | 1.34 m/s, 352° | - | - |
| 1777946191 | 13.89° C | 78% | 1008.4 hPa | 0 mm | 1.34 m/s, 359° | - | - |
| 1777945849 | 13.33° C | 79% | 1008.5 hPa | 0 mm | 0.89 m/s, 15° | - | - |
| 1777945550 | 13.33° C | 78% | 1008.5 hPa | 0 mm | 1.79 m/s, 0° | - | - |
| 1777945245 | 13.33° C | 80% | 1008.5 hPa | 0 mm | 1.34 m/s, 342° | - | - |
| 1777944943 | 13.33° C | 81% | 1008.5 hPa | 0 mm | 1.34 m/s, 338° | - | - |
| 1777944641 | 13.33° C | 81% | 1008.5 hPa | 0 mm | 1.79 m/s, 332° | - | - |
| 1777944360 | 13.89° C | 79% | 1008.6 hPa | 0 mm | 1.79 m/s, 325° | - | - |
| 1777944038 | 13.89° C | 77% | 1008.4 hPa | 0 mm | 1.79 m/s, 4° | - | - |
| 1777943736 | 13.89° C | 75% | 1008.4 hPa | 0 mm | 3.13 m/s, 40° | - | - |
| 1777943434 | 13.33° C | 78% | 1008.6 hPa | 0 mm | 3.58 m/s, 29° | - | - |
| 1777943133 | 13.33° C | 81% | 1008.9 hPa | 0 mm | 1.79 m/s, 13° | - | - |
| 1777942831 | 13.33° C | 82% | 1009.1 hPa | 0 mm | 1.34 m/s, 338° | - | - |
| 1777942529 | 13.33° C | 80% | 1009.2 hPa | 0 mm | 0.89 m/s, 0° | - | - |
| 1777942227 | 13.33° C | 79% | 1009.2 hPa | 0 mm | 0.89 m/s, 345° | - | - |
* Rain latest hour (hover to see other rain measurements)
** Current wind speed in m/s (hover to see current wind gust speed)